Gove Airport
YPGV : now visible

Airfield :











YOU CAN JOIN US ON...

 
LOGIN :

Register | Disclaimer

   EN    FR    IT 

 









Legend :    VFR   Marginal VFR   IFR   Intensive IFR   Very Intensive IFR
Visi :
Ceiling :
>= 8 km
>= 3000ft
5 to 8 km
1000 to 3000 ft
1500m to 5 km
500 to 1000 ft
800 to 1500m
200 to 500 ft
< 800m
< 200 ft
Symbols :   Thunderstorms  Fog  Heavy snow  Heavy precipitations  Wind > 20 kt






- Airport Elevation : 192 ft
- IATA code : GOV


YPGV - Gove

CURRENT METAR :
  • 150530Z 09011KT 9999 SCT028 31/21 Q1009

EXPIRED METARs :
  • 150500Z 09011KT 9999 SCT025 31/22 Q1009
  • 150430Z 10011KT 9999 BKN028 31/22 Q1010
  • 150400Z AUTO 07010KT 050V120 9999 // SCT032 SCT038 SCT088 31/22 Q1010
  • 150330Z AUTO 11011KT 9999 // SCT033 SCT039 31/22 Q1010
  • 150300Z 09011KT 9999 FEW030 31/22 Q1011
  • 150230Z 07009KT 060V120 9999 FEW035 31/21 Q1011 RF00.0/000.2

TAF AMD TAF YPGV
Valid from the 15 at 01:00 until the 15 at 14:00 UTC


150117Z 1501/1514 10012KT 9999 SCT025
FM151000 13005KT 9999 FEW020
YBBB FIR / Oceania



MET'MAP, your aeronautical weather chart ! - Copyright ORBIFLY December 2007 - Disclaimer

ORBIFLY MET'MAP TEAM :

Programming & Development : Alexandra Zaïnal
Concept & original design : Baudouin d'Aumeries
Assistance for programming : Marc-Olivier Méhu
Technical & hardware support : Manuel Goepfert

Contact : metmap@orbifly.com




SOURCES & CREDITS :

   NOAA       Earth
Advisory